< Typhoon 201327 2013 Season Typhoon 201329 >
Typhoon 201328 (LEKIMA)
General InformationTrack Information on Google MapsDetailed Wind InformationForecast History on Google MapsAccess Analytics MapList of All Images || NewsDisaster Info.WeblogTrackbackTyphoon FrontTwiphoonTyphoon Now!Typhoon ImaginationDisaster Info. XMLResourceGoogle EarthGE AnimationAtom FeedGeoJSON
Detalied Best Track (Time Zone = UTC)
Year Month Day Hour Lat. Long. Pressure (hPa) Wind (kt) Class Image Chart
2013 10 19 00 9.3 162.4 1008 0 2 Image Chart
2013 10 19 06 9.1 162.3 1006 0 2 Image Chart
2013 10 19 12 8.8 162.0 1006 0 2 Image Chart
2013 10 19 18 9.1 161.7 1004 0 2 Image Chart
2013 10 20 00 9.4 161.5 1004 0 2 Image Chart
2013 10 20 06 10.0 161.2 1004 0 2 Image Chart
2013 10 20 12 10.4 160.9 1004 0 2 Image Chart
2013 10 20 18 10.9 161.0 1000 35 3 Image Chart
2013 10 21 00 11.4 161.0 998 40 3 Image Chart
2013 10 21 06 12.2 160.7 990 50 4 Image Chart
2013 10 21 12 13.1 160.1 985 55 4 Image Chart
2013 10 21 18 13.8 159.1 980 55 4 Image Chart
2013 10 22 00 15.1 158.2 975 60 4 Image Chart
2013 10 22 06 16.2 156.8 955 80 5 Image Chart
2013 10 22 12 17.1 155.4 930 100 5 Image Chart
2013 10 22 18 18.0 154.0 915 110 5 Image Chart
2013 10 23 00 18.6 152.2 905 115 5 Image Chart
2013 10 23 06 19.0 150.9 905 115 5 Image Chart
2013 10 23 12 19.4 149.8 905 115 5 Image Chart
2013 10 23 18 19.8 148.7 905 115 5 Image Chart
2013 10 24 00 20.6 147.6 905 115 5 Image Chart
2013 10 24 06 21.4 146.5 905 115 5 Image Chart
2013 10 24 12 22.4 145.6 915 105 5 Image Chart
2013 10 24 18 23.6 144.7 915 105 5 Image Chart
2013 10 25 00 25.0 144.3 920 100 5 Image Chart
2013 10 25 06 26.9 144.4 920 100 5 Image Chart
2013 10 25 12 29.2 145.0 935 90 5 Image Chart
2013 10 25 18 31.7 146.7 945 85 5 Image Chart
2013 10 26 00 34.3 149.3 960 75 5 Image Chart
2013 10 26 06 36.8 152.4 960 75 5 Image Chart
2013 10 26 12 39.0 155.0 980 0 6 Image Chart
2013 10 26 18 40.2 158.1 980 0 6 Image Chart
2013 10 27 00 40.4 161.1 980 0 6 Image Chart
2013 10 27 06 40.8 164.8 980 0 6 Image Chart
2013 10 27 12 40.9 169.4 984 0 6 Image Chart
2013 10 27 18 40.8 172.8 984 0 6 Image Chart
2013 10 28 00 40.7 175.6 988 0 6 Image Chart
2013 10 28 06 41.7 176.9 988 0 6 Image Chart
2013 10 28 12 42.7 179.7 990 0 6 Image Chart
2013 10 28 18 43.5 181.1 992 0 6 Image Chart
Japan Meteorological Agency Best Track Data | Correction Date : 2013-11-20
< Typhoon 201327 2013 Season Typhoon 201329 >

Help